N7UV-WX Weather Reports


time (UTC)temp
C
wind
direction
speed
KPH
gust
KPH
rain 1hr
cm
rain 24hr
cm
rain mn
cm
humidity
%
barometer
mb
20260502151553 25 0.0 0.0 0.00 0.00 0.00 28 1012.4
20260502150548 25 0.0 3.2 0.00 0.00 0.00 29 1012.2
20260502130518 22 0.0 0.0 0.00 0.00 0.00 24 1010.9
20260502123535 22 0.0 0.0 0.00 0.00 0.00 23 1010.5
20260502122535 22 0.0 0.0 0.00 0.00 0.00 23 1010.3
20260502121556 22 0.0 0.0 0.00 0.00 0.00 24 1010.2
20260502120503 22 0.0 0.0 0.00 0.00 0.00 24 1010.2
20260502115519 22 0.0 0.0 0.00 0.00 0.00 23 1010.1
20260502114540 22 0.0 0.0 0.00 0.00 0.00 23 1010.2
20260502113520 22 0.0 0.0 0.00 0.00 0.00 23 1010.1
20260502112518 23 0.0 0.0 0.00 0.00 0.00 22 1010.2
20260502111535 24 0.0 0.0 0.00 0.00 0.00 21 1010.2
20260502110520 25 0.0 0.0 0.00 0.00 0.00 18 1010.0
20260502105520 25 0.0 0.0 0.00 0.00 0.00 18 1009.9
20260502104520 25 0.0 1.6 0.00 0.00 0.00 17 1009.9
20260502103520 25 0.0 0.0 0.00 0.00 0.00 18 1009.9
20260502102520 25 0.0 4.8 0.00 0.00 0.00 18 1009.7
20260502101535 25 0.0 1.6 0.00 0.00 0.00 18 1009.6
20260502100520 25 248 1.6 9.7 0.00 0.00 0.00 18 1009.6
20260502091519 25 0.0 0.0 0.00 0.00 0.00 18 1009.5
20260502090535 26 0.0 0.0 0.00 0.00 0.00 18 1009.5
20260502071535 26 0.0 0.0 0.00 0.00 0.00 16 1009.0
20260502070519 26 0.0 0.0 0.00 0.00 0.00 16 1009.0
20260502065519 26 158 3.2 12.9 0.00 0.00 0.00 17 1009.0
20260502064519 27 158 3.2 9.7 0.00 0.00 0.00 17 1009.0
20260502063554 27 135 4.8 12.9 0.00 0.00 0.00 16 1008.9
20260502062519 27 158 1.6 11.3 0.00 0.00 0.00 15 1008.9
20260502061534 27 0.0 0.0 0.00 0.00 0.00 14 1008.7
20260502060519 27 0.0 0.0 0.00 0.00 0.00 14 1008.7
20260502055520 28 0.0 0.0 0.00 0.00 0.00 13 1008.6
20260502054523 28 0.0 1.6 0.00 0.00 0.00 13 1008.5
20260502053519 28 0.0 0.0 0.00 0.00 0.00 14 1008.3
20260502052519 28 0.0 0.0 0.00 0.00 0.00 14 1008.2
20260502051534 28 180 3.2 9.7 0.00 0.00 0.00 14 1008.2
20260502050519 28 0.0 6.4 0.00 0.00 0.00 15 1008.1
20260502045554 28 0.0 0.0 0.00 0.00 0.00 15 1008.0
20260502044534 28 0.0 0.0 0.00 0.00 0.00 15 1008.1
20260502043534 28 0.0 0.0 0.00 0.00 0.00 15 1008.1
20260502042533 28 0.0 0.0 0.00 0.00 0.00 15 1007.9
20260502041519 28 0.0 0.0 0.00 0.00 0.00 16 1007.8
20260502040519 28 0.0 0.0 0.00 0.00 0.00 16 1007.8
20260502035614 28 0.0 0.0 0.00 0.00 0.00 17 1007.6
20260502034533 28 0.0 0.0 0.00 0.00 0.00 17 1007.6
20260502033536 28 0.0 0.0 0.00 0.00 0.00 17 1007.4
20260502032519 28 0.0 0.0 0.00 0.00 0.00 17 1007.2
20260502031548 28 0.0 0.0 0.00 0.00 0.00 17 1007.1
20260502030534 27 0.0 1.6 0.00 0.00 0.00 17 1006.9
20260502025533 28 0.0 0.0 0.00 0.00 0.00 18 1006.8
20260502024554 28 0.0 0.0 0.00 0.00 0.00 18 1006.7
20260502023519 28 0.0 0.0 0.00 0.00 0.00 18 1006.5
20260502022518 28 0.0 0.0 0.00 0.00 0.00 17 1006.4
20260502021519 28 225 3.2 6.4 0.00 0.00 0.00 17 1006.4
20260502020534 28 0.0 0.0 0.00 0.00 0.00 16 1006.3
20260502015518 29 0.0 1.6 0.00 0.00 0.00 17 1006.4
20260502014554 29 0.0 0.0 0.00 0.00 0.00 16 1006.2
20260502013518 29 0.0 0.0 0.00 0.00 0.00 17 1006.3
20260502012520 29 0.0 0.0 0.00 0.00 0.00 17 1006.2
20260502011521 30 0.0 0.0 0.00 0.00 0.00 17 1006.3
20260502010520 29 0.0 0.0 0.00 0.00 0.00 16 1006.4
20260502005533 29 0.0 0.0 0.00 0.00 0.00 17 1006.4
20260502004518 30 0.0 0.0 0.00 0.00 0.00 17 1006.4
20260502003533 30 0.0 0.0 0.00 0.00 0.00 16 1006.4
20260502002535 30 0.0 0.0 0.00 0.00 0.00 17 1006.6
20260502001535 30 225 1.6 11.3 0.00 0.00 0.00 17 1006.6
20260502000535 29 0.0 0.0 0.00 0.00 0.00 17 1006.7
20260501235523 29 0.0 0.0 0.00 0.00 0.00 17 1006.7
20260501234520 29 203 1.6 6.4 0.00 0.00 0.00 17 1006.8
20260501233518 29 0.0 0.0 0.00 0.00 0.00 17 1006.8
20260501232553 29 0.0 4.8 0.00 0.00 0.00 17 1006.9
20260501231520 29 225 1.6 6.4 0.00 0.00 0.00 18 1007.0
20260501230555 29 0.0 0.0 0.00 0.00 0.00 19 1006.9
20260501225520 28 293 3.2 12.9 0.00 0.00 0.00 18 1007.2
20260501224535 29 0.0 1.6 0.00 0.00 0.00 19 1007.2
20260501223520 28 0.0 0.0 0.00 0.00 0.00 20 1007.3
20260501222535 28 0.0 0.0 0.00 0.00 0.00 20 1007.6
20260501221524 29 248 1.6 12.9 0.00 0.00 0.00 20 1007.6
20260501220520 28 225 1.6 8.0 0.00 0.00 0.00 20 1007.8
20260501215520 28 225 1.6 4.8 0.00 0.00 0.00 20 1007.9
20260501214540 28 0.0 0.0 0.00 0.00 0.00 21 1008.1
20260501213520 28 0.0 0.0 0.00 0.00 0.00 21 1008.2
20260501212520 28 0.0 0.0 0.00 0.00 0.00 21 1008.3
20260501211535 28 248 4.8 16.1 0.00 0.00 0.00 20 1008.4
20260501210538 28 0.0 0.0 0.00 0.00 0.00 21 1008.5
20260501205520 27 0.0 0.0 0.00 0.00 0.00 21 1008.7
20260501204536 28 180 1.6 11.3 0.00 0.00 0.00 22 1008.8
20260501203520 27 0.0 1.6 0.00 0.00 0.00 22 1008.9
20260501202534 27 0.0 0.0 0.00 0.00 0.00 22 1008.9
20260501201520 27 0.0 0.0 0.00 0.00 0.00 23 1009.0
20260501200534 27 180 1.6 11.3 0.00 0.00 0.00 23 1009.1
20260501195520 26 0.0 0.0 0.00 0.00 0.00 25 1009.1
20260501194554 26 270 1.6 6.4 0.00 0.00 0.00 25 1009.2
20260501193520 27 0.0 1.6 0.00 0.00 0.00 22 1009.4
20260501192634 26 0.0 3.2 0.00 0.00 0.00 25 1009.5
20260501191520 26 0.0 0.0 0.00 0.00 0.00 25 1009.8
20260501190534 26 0.0 1.6 0.00 0.00 0.00 26 1009.8
20260501185540 25 0.0 0.0 0.00 0.00 0.00 26 1009.8
20260501184519 25 0.0 0.0 0.00 0.00 0.00 26 1010.0
20260501183534 25 203 1.6 8.0 0.00 0.00 0.00 27 1010.1
20260501182534 25 0.0 0.0 0.00 0.00 0.00 27 1010.4
20260501181534 25 0.0 0.0 0.00 0.00 0.00 29 1010.5
20260501180519 25 0.0 0.0 0.00 0.00 0.00 28 1010.7
20260501175519 25 0.0 0.0 0.00 0.00 0.00 29 1010.5
20260501174536 24 0.0 0.0 0.00 0.00 0.00 31 1010.7
20260501173534 24 0.0 0.0 0.00 0.00 0.00 31 1010.8
20260501172519 24 0.0 0.0 0.00 0.00 0.00 31 1010.8
20260501171554 23 0.0 0.0 0.00 0.00 0.00 32 1010.8
20260501170554 23 0.0 0.0 0.00 0.00 0.00 33 1010.7
20260501165534 23 0.0 1.6 0.00 0.00 0.00 33 1010.8
20260501164519 22 0.0 0.0 0.00 0.00 0.00 33 1010.8
20260501163539 22 0.0 0.0 0.00 0.00 0.00 34 1010.9
20260501162539 22 0.0 0.0 0.00 0.00 0.00 35 1011.0
20260501161519 22 0.0 0.0 0.00 0.00 0.00 36 1010.8
20260501160519 22 248 1.6 6.4 0.00 0.00 0.00 37 1010.8
20260501155554 22 0.0 0.0 0.00 0.00 0.00 37 1010.8
20260501154549 22 0.0 3.2 0.00 0.00 0.00 38 1010.7
20260501153555 21 0.0 0.0 0.00 0.00 0.00 38 1010.7
20260501152519 21 0.0 3.2 0.00 0.00 0.00 39 1010.6